Kansas City, Missouri
Traffic Map
Current Weather Conditions
Kansas City, Missouri
Overcast Haze
Overcast
45°
Feels Like: 43°
Wind Chill: 43° Ceiling: 500
Heat Index: 45° Visibility: 4mi
Dew Point: 43° Wind: 5mph
Humidity: 93% Direction: 130° (SE)
Pressure: 29.82in Gusts: 0mph
Raw Report DataKMKC 191254Z 13004KT 4SM BR OVC005 07/06 A2982 RMK AO2 SLP100 T00720061
Traffic Incident Summary
Active as of:
Severity:
Category:
InformationThere was an issue retrieving the traffic information for this location. Please try a different location or try again shortly.
Advertisements
Track Severe Weather on mobile